createdAt,value
2019-05-10T00:09:17.592Z,9.56
2019-05-10T00:24:17.786Z,9.38
2019-05-10T00:39:19.495Z,9.29
2019-05-10T00:54:20.517Z,9.14
2019-05-10T01:09:20.630Z,9.26
2019-05-10T01:24:20.795Z,9.35
2019-05-10T01:39:21.271Z,9.47
2019-05-10T01:54:21.754Z,9.51
2019-05-10T02:09:27.541Z,9.53
2019-05-10T02:24:29.701Z,9.57
2019-05-10T02:39:32.836Z,9.83
2019-05-10T02:54:36.969Z,9.89
2019-05-10T03:09:37.408Z,9.90
2019-05-10T03:24:37.754Z,10.01
2019-05-10T03:39:37.828Z,10.12
2019-05-10T03:54:38.007Z,10.04
2019-05-10T04:09:38.136Z,10.27
2019-05-10T04:24:38.286Z,10.51
2019-05-10T04:39:38.520Z,10.76
2019-05-10T04:54:38.665Z,11.15
2019-05-10T05:09:38.823Z,11.55
2019-05-10T05:24:38.972Z,11.75
2019-05-10T05:39:39.072Z,12.07
2019-05-10T05:54:39.203Z,12.56
2019-05-10T06:09:39.510Z,13.29
2019-05-10T06:24:39.674Z,13.57
2019-05-10T06:39:39.847Z,13.70
2019-05-10T06:54:40.069Z,14.07
2019-05-10T07:10:01.077Z,14.52
2019-05-10T07:24:45.374Z,14.94
2019-05-10T07:39:45.595Z,15.25
2019-05-10T07:54:47.815Z,15.65
2019-05-10T08:09:48.754Z,16.43
2019-05-10T08:24:52.702Z,16.83
2019-05-10T08:39:56.125Z,17.00
2019-05-10T08:54:56.446Z,17.04
2019-05-10T09:09:56.755Z,19.37
2019-05-10T09:24:56.955Z,17.96
2019-05-10T09:40:05.966Z,17.77
2019-05-10T09:55:04.061Z,16.68
2019-05-10T10:10:12.858Z,16.68
2019-05-10T10:25:14.080Z,16.68
2019-05-10T10:40:17.719Z,17.06
2019-05-10T10:55:18.774Z,17.36
2019-05-10T11:10:21.609Z,19.10
2019-05-10T11:25:22.709Z,19.99
2019-05-10T11:40:29.783Z,20.33
2019-05-10T11:55:28.040Z,19.81
2019-05-10T12:10:28.148Z,20.85
2019-05-10T12:25:47.212Z,19.92
2019-05-10T12:40:33.713Z,19.66
2019-05-10T12:55:33.810Z,18.73
2019-05-10T13:10:37.251Z,17.92
2019-05-10T13:25:39.157Z,17.79
2019-05-10T13:40:45.592Z,19.22
2019-05-10T13:55:44.567Z,20.16
2019-05-10T14:10:44.654Z,20.29
2019-05-10T14:25:44.793Z,19.95
2019-05-10T14:40:44.877Z,19.59
2019-05-10T14:55:45.043Z,18.54
2019-05-10T15:10:45.186Z,18.20
2019-05-10T15:25:56.432Z,16.86
2019-05-10T15:40:50.394Z,16.53
2019-05-10T15:55:50.601Z,17.81
2019-05-10T16:10:50.747Z,18.20
2019-05-10T16:25:50.868Z,17.43
2019-05-10T16:40:57.980Z,16.85
2019-05-10T16:55:56.117Z,15.72
2019-05-10T17:11:15.431Z,15.19
2019-05-10T17:26:15.534Z,14.64
2019-05-10T17:41:19.438Z,14.22
2019-05-10T17:56:20.814Z,14.07
2019-05-10T18:11:20.950Z,13.59
2019-05-10T18:26:21.115Z,13.04
2019-05-10T18:41:21.300Z,12.57
2019-05-10T18:56:25.483Z,12.24
2019-05-10T19:11:26.565Z,11.82
2019-05-10T19:26:31.606Z,11.36
2019-05-10T19:41:31.865Z,10.66
2019-05-10T19:56:37.067Z,10.01
2019-05-10T20:11:37.400Z,9.64
2019-05-10T20:26:37.592Z,9.35
2019-05-10T20:41:37.835Z,8.91
2019-05-10T20:56:37.939Z,8.55
2019-05-10T21:11:38.229Z,8.23
2019-05-10T21:26:38.577Z,7.97
2019-05-10T21:41:38.797Z,7.50
2019-05-10T21:56:39.041Z,7.17
2019-05-10T22:11:39.258Z,7.09
2019-05-10T22:26:39.466Z,6.62
2019-05-10T22:41:39.589Z,6.43
2019-05-10T22:56:39.785Z,6.31
2019-05-10T23:11:40.129Z,6.48
2019-05-10T23:26:40.285Z,6.67
2019-05-10T23:41:40.441Z,6.80
2019-05-10T23:56:40.690Z,6.74
